<?xml version="1.0" encoding="UTF-8" standalone="no" ?>
<gpx xmlns="http://www.topografix.com/GPX/1/1" xmlns:xsi="http://www.w3.org/2001/XMLSchema-instance" xsi:schemaLocation="http://www.topografix.com/GPX/1/1 http://www.topografix.com/GPX/1/1/gpx.xsd" version="1.1" creator="VisuGPX - https://www.visugpx.com">
  <metadata>
    <name>La Pano 2014</name>
    <desc><![CDATA[Created with GOTOES STRAVA TOOLS Version 22.9]]></desc>
  </metadata>
  <trk>
    <name><![CDATA[GOTOES Export]]></name>
    <trkseg>
      <trkpt lat="46.43228" lon="4.78781">
        <ele>259.693359375</ele>
        <time>2014-06-22T05:00:00Z</time>
      </trkpt>
      <trkpt lat="46.4322" lon="4.78773">
        <ele>259.693359375</ele>
        <time>2014-06-22T05:00:03Z</time>
      </trkpt>
      <trkpt lat="46.43215" lon="4.78784">
        <ele>258.73193359375</ele>
        <time>2014-06-22T05:00:06Z</time>
      </trkpt>
      <trkpt lat="46.43192" lon="4.78976">
        <ele>254.40600585938</ele>
        <time>2014-06-22T05:00:36Z</time>
      </trkpt>
      <trkpt lat="46.42934" lon="4.79949">
        <ele>240.46704101562</ele>
        <time>2014-06-22T05:03:14Z</time>
      </trkpt>
      <trkpt lat="46.42878" lon="4.80281">
        <ele>234.69909667969</ele>
        <time>2014-06-22T05:04:05Z</time>
      </trkpt>
      <trkpt lat="46.42906" lon="4.80336">
        <ele>233.25708007812</ele>
        <time>2014-06-22T05:04:14Z</time>
      </trkpt>
      <trkpt lat="46.43018" lon="4.80373">
        <ele>234.69909667969</ele>
        <time>2014-06-22T05:04:39Z</time>
      </trkpt>
      <trkpt lat="46.43035" lon="4.80417">
        <ele>235.1796875</ele>
        <time>2014-06-22T05:04:47Z</time>
      </trkpt>
      <trkpt lat="46.43004" lon="4.80599">
        <ele>239.98620605469</ele>
        <time>2014-06-22T05:05:16Z</time>
      </trkpt>
      <trkpt lat="46.42913" lon="4.80691">
        <ele>241.90893554688</ele>
        <time>2014-06-22T05:05:42Z</time>
      </trkpt>
      <trkpt lat="46.42834" lon="4.80808">
        <ele>241.42822265625</ele>
        <time>2014-06-22T05:06:09Z</time>
      </trkpt>
      <trkpt lat="46.4271" lon="4.80914">
        <ele>239.98620605469</ele>
        <time>2014-06-22T05:06:45Z</time>
      </trkpt>
      <trkpt lat="46.42698" lon="4.80945">
        <ele>239.50549316406</ele>
        <time>2014-06-22T05:06:51Z</time>
      </trkpt>
      <trkpt lat="46.42686" lon="4.81163">
        <ele>252.4833984375</ele>
        <time>2014-06-22T05:07:33Z</time>
      </trkpt>
      <trkpt lat="46.4267" lon="4.81248">
        <ele>258.73193359375</ele>
        <time>2014-06-22T05:07:51Z</time>
      </trkpt>
      <trkpt lat="46.42676" lon="4.8128">
        <ele>261.61596679688</ele>
        <time>2014-06-22T05:07:58Z</time>
      </trkpt>
      <trkpt lat="46.4275" lon="4.81378">
        <ele>274.59375</ele>
        <time>2014-06-22T05:08:36Z</time>
      </trkpt>
      <trkpt lat="46.42756" lon="4.81426">
        <ele>279.40026855469</ele>
        <time>2014-06-22T05:08:50Z</time>
      </trkpt>
      <trkpt lat="46.42719" lon="4.81478">
        <ele>288.05224609375</ele>
        <time>2014-06-22T05:09:15Z</time>
      </trkpt>
      <trkpt lat="46.42582" lon="4.81439">
        <ele>284.20690917969</ele>
        <time>2014-06-22T05:10:32Z</time>
      </trkpt>
      <trkpt lat="46.42559" lon="4.81412">
        <ele>277.47766113281</ele>
        <time>2014-06-22T05:10:49Z</time>
      </trkpt>
      <trkpt lat="46.42515" lon="4.81422">
        <ele>281.32299804688</ele>
        <time>2014-06-22T05:11:16Z</time>
      </trkpt>
      <trkpt lat="46.42506" lon="4.81441">
        <ele>285.16821289062</ele>
        <time>2014-06-22T05:11:26Z</time>
      </trkpt>
      <trkpt lat="46.42689" lon="4.81532">
        <ele>294.78137207031</ele>
        <time>2014-06-22T05:13:33Z</time>
      </trkpt>
      <trkpt lat="46.42719" lon="4.8153">
        <ele>294.78137207031</ele>
        <time>2014-06-22T05:13:52Z</time>
      </trkpt>
      <trkpt lat="46.42748" lon="4.81544">
        <ele>298.62670898438</ele>
        <time>2014-06-22T05:14:14Z</time>
      </trkpt>
      <trkpt lat="46.42799" lon="4.81537">
        <ele>302.47192382812</ele>
        <time>2014-06-22T05:14:51Z</time>
      </trkpt>
      <trkpt lat="46.42816" lon="4.81611">
        <ele>311.6044921875</ele>
        <time>2014-06-22T05:15:28Z</time>
      </trkpt>
      <trkpt lat="46.42886" lon="4.81644">
        <ele>318.33361816406</ele>
        <time>2014-06-22T05:16:20Z</time>
      </trkpt>
      <trkpt lat="46.42893" lon="4.81673">
        <ele>319.29504394531</ele>
        <time>2014-06-22T05:16:34Z</time>
      </trkpt>
      <trkpt lat="46.42995" lon="4.8171">
        <ele>325.06298828125</ele>
        <time>2014-06-22T05:17:57Z</time>
      </trkpt>
      <trkpt lat="46.43004" lon="4.81666">
        <ele>326.02416992188</ele>
        <time>2014-06-22T05:18:25Z</time>
      </trkpt>
      <trkpt lat="46.42989" lon="4.81658">
        <ele>325.54357910156</ele>
        <time>2014-06-22T05:18:40Z</time>
      </trkpt>
      <trkpt lat="46.42972" lon="4.81609">
        <ele>321.2177734375</ele>
        <time>2014-06-22T05:19:12Z</time>
      </trkpt>
      <trkpt lat="46.42953" lon="4.81588">
        <ele>316.41101074219</ele>
        <time>2014-06-22T05:19:28Z</time>
      </trkpt>
      <trkpt lat="46.43044" lon="4.81573">
        <ele>318.33361816406</ele>
        <time>2014-06-22T05:20:14Z</time>
      </trkpt>
      <trkpt lat="46.4309" lon="4.81622">
        <ele>326.02416992188</ele>
        <time>2014-06-22T05:20:37Z</time>
      </trkpt>
      <trkpt lat="46.43171" lon="4.81653">
        <ele>325.54357910156</ele>
        <time>2014-06-22T05:21:06Z</time>
      </trkpt>
      <trkpt lat="46.43213" lon="4.81648">
        <ele>319.77563476562</ele>
        <time>2014-06-22T05:21:19Z</time>
      </trkpt>
      <trkpt lat="46.4322" lon="4.81697">
        <ele>321.69836425781</ele>
        <time>2014-06-22T05:21:28Z</time>
      </trkpt>
      <trkpt lat="46.43195" lon="4.81816">
        <ele>323.14038085938</ele>
        <time>2014-06-22T05:21:51Z</time>
      </trkpt>
      <trkpt lat="46.43167" lon="4.81893">
        <ele>317.85302734375</ele>
        <time>2014-06-22T05:22:05Z</time>
      </trkpt>
      <trkpt lat="46.43169" lon="4.82009">
        <ele>319.77563476562</ele>
        <time>2014-06-22T05:22:23Z</time>
      </trkpt>
      <trkpt lat="46.4314" lon="4.82058">
        <ele>321.69836425781</ele>
        <time>2014-06-22T05:22:33Z</time>
      </trkpt>
      <trkpt lat="46.43162" lon="4.82117">
        <ele>321.69836425781</ele>
        <time>2014-06-22T05:22:44Z</time>
      </trkpt>
      <trkpt lat="46.43333" lon="4.8232">
        <ele>321.2177734375</ele>
        <time>2014-06-22T05:23:41Z</time>
      </trkpt>
      <trkpt lat="46.43419" lon="4.82359">
        <ele>319.77563476562</ele>
        <time>2014-06-22T05:24:06Z</time>
      </trkpt>
      <trkpt lat="46.43501" lon="4.82426">
        <ele>318.81433105469</ele>
        <time>2014-06-22T05:24:32Z</time>
      </trkpt>
      <trkpt lat="46.4353" lon="4.82432">
        <ele>319.77563476562</ele>
        <time>2014-06-22T05:24:41Z</time>
      </trkpt>
      <trkpt lat="46.43581" lon="4.825">
        <ele>321.2177734375</ele>
        <time>2014-06-22T05:25:02Z</time>
      </trkpt>
      <trkpt lat="46.43784" lon="4.82677">
        <ele>320.73706054688</ele>
        <time>2014-06-22T05:26:12Z</time>
      </trkpt>
      <trkpt lat="46.43806" lon="4.82718">
        <ele>320.25634765625</ele>
        <time>2014-06-22T05:26:23Z</time>
      </trkpt>
      <trkpt lat="46.43949" lon="4.82804">
        <ele>324.1015625</ele>
        <time>2014-06-22T05:27:13Z</time>
      </trkpt>
      <trkpt lat="46.44008" lon="4.8277">
        <ele>330.35021972656</ele>
        <time>2014-06-22T05:27:34Z</time>
      </trkpt>
      <trkpt lat="46.44043" lon="4.82732">
        <ele>335.63732910156</ele>
        <time>2014-06-22T05:27:49Z</time>
      </trkpt>
      <trkpt lat="46.44048" lon="4.82692">
        <ele>338.04077148438</ele>
        <time>2014-06-22T05:27:59Z</time>
      </trkpt>
      <trkpt lat="46.44078" lon="4.82687">
        <ele>340.92468261719</ele>
        <time>2014-06-22T05:28:11Z</time>
      </trkpt>
      <trkpt lat="46.44099" lon="4.82581">
        <ele>349.09582519531</ele>
        <time>2014-06-22T05:28:44Z</time>
      </trkpt>
      <trkpt lat="46.44147" lon="4.82518">
        <ele>358.708984375</ele>
        <time>2014-06-22T05:29:17Z</time>
      </trkpt>
      <trkpt lat="46.44195" lon="4.82529">
        <ele>360.63171386719</ele>
        <time>2014-06-22T05:29:45Z</time>
      </trkpt>
      <trkpt lat="46.44255" lon="4.82465">
        <ele>369.76428222656</ele>
        <time>2014-06-22T05:30:37Z</time>
      </trkpt>
      <trkpt lat="46.44361" lon="4.82439">
        <ele>379.85803222656</ele>
        <time>2014-06-22T05:32:07Z</time>
      </trkpt>
      <trkpt lat="46.44418" lon="4.82454">
        <ele>385.6259765625</ele>
        <time>2014-06-22T05:33:09Z</time>
      </trkpt>
      <trkpt lat="46.44486" lon="4.82424">
        <ele>394.75854492188</ele>
        <time>2014-06-22T05:34:49Z</time>
      </trkpt>
      <trkpt lat="46.44528" lon="4.8243">
        <ele>398.60375976562</ele>
        <time>2014-06-22T05:36:04Z</time>
      </trkpt>
      <trkpt lat="46.44654" lon="4.82413">
        <ele>405.3330078125</ele>
        <time>2014-06-22T05:40:32Z</time>
      </trkpt>
      <trkpt lat="46.4482" lon="4.82479">
        <ele>417.349609375</ele>
        <time>2014-06-22T05:46:46Z</time>
      </trkpt>
      <trkpt lat="46.44836" lon="4.82489">
        <ele>418.79150390625</ele>
        <time>2014-06-22T05:47:21Z</time>
      </trkpt>
      <trkpt lat="46.44852" lon="4.82533">
        <ele>420.71411132812</ele>
        <time>2014-06-22T05:48:21Z</time>
      </trkpt>
      <trkpt lat="46.44893" lon="4.8256">
        <ele>424.07873535156</ele>
        <time>2014-06-22T05:49:30Z</time>
      </trkpt>
      <trkpt lat="46.44987" lon="4.82651">
        <ele>426.48205566406</ele>
        <time>2014-06-22T05:51:58Z</time>
      </trkpt>
      <trkpt lat="46.45006" lon="4.82654">
        <ele>426.48205566406</ele>
        <time>2014-06-22T05:52:20Z</time>
      </trkpt>
      <trkpt lat="46.45034" lon="4.82702">
        <ele>426.48205566406</ele>
        <time>2014-06-22T05:52:59Z</time>
      </trkpt>
      <trkpt lat="46.45081" lon="4.82652">
        <ele>434.17260742188</ele>
        <time>2014-06-22T05:53:45Z</time>
      </trkpt>
      <trkpt lat="46.45099" lon="4.82605">
        <ele>438.01782226562</ele>
        <time>2014-06-22T05:54:12Z</time>
      </trkpt>
      <trkpt lat="46.45158" lon="4.82613">
        <ele>441.38244628906</ele>
        <time>2014-06-22T05:54:51Z</time>
      </trkpt>
      <trkpt lat="46.45179" lon="4.82631">
        <ele>442.82446289062</ele>
        <time>2014-06-22T05:55:06Z</time>
      </trkpt>
      <trkpt lat="46.45278" lon="4.82655">
        <ele>449.07299804688</ele>
        <time>2014-06-22T05:56:10Z</time>
      </trkpt>
      <trkpt lat="46.45422" lon="4.82779">
        <ele>439.45971679688</ele>
        <time>2014-06-22T05:57:51Z</time>
      </trkpt>
      <trkpt lat="46.45461" lon="4.82799">
        <ele>437.537109375</ele>
        <time>2014-06-22T05:58:14Z</time>
      </trkpt>
      <trkpt lat="46.45461" lon="4.82825">
        <ele>434.17260742188</ele>
        <time>2014-06-22T05:58:23Z</time>
      </trkpt>
      <trkpt lat="46.45474" lon="4.82836">
        <ele>431.76916503906</ele>
        <time>2014-06-22T05:58:28Z</time>
      </trkpt>
      <trkpt lat="46.45494" lon="4.82827">
        <ele>430.80798339844</ele>
        <time>2014-06-22T05:58:35Z</time>
      </trkpt>
      <trkpt lat="46.456" lon="4.82942">
        <ele>413.02355957031</ele>
        <time>2014-06-22T05:59:14Z</time>
      </trkpt>
      <trkpt lat="46.45657" lon="4.82979">
        <ele>403.89111328125</ele>
        <time>2014-06-22T05:59:29Z</time>
      </trkpt>
      <trkpt lat="46.45689" lon="4.83027">
        <ele>402.9296875</ele>
        <time>2014-06-22T05:59:40Z</time>
      </trkpt>
      <trkpt lat="46.45824" lon="4.83168">
        <ele>397.64245605469</ele>
        <time>2014-06-22T06:00:13Z</time>
      </trkpt>
      <trkpt lat="46.45887" lon="4.8329">
        <ele>395.71984863281</ele>
        <time>2014-06-22T06:00:33Z</time>
      </trkpt>
      <trkpt lat="46.45927" lon="4.83322">
        <ele>396.20056152344</ele>
        <time>2014-06-22T06:00:41Z</time>
      </trkpt>
      <trkpt lat="46.45945" lon="4.83372">
        <ele>394.27795410156</ele>
        <time>2014-06-22T06:00:47Z</time>
      </trkpt>
      <trkpt lat="46.45987" lon="4.83405">
        <ele>394.27795410156</ele>
        <time>2014-06-22T06:00:55Z</time>
      </trkpt>
      <trkpt lat="46.46" lon="4.83418">
        <ele>394.75854492188</ele>
        <time>2014-06-22T06:00:58Z</time>
      </trkpt>
      <trkpt lat="46.46047" lon="4.8336">
        <ele>391.39379882812</ele>
        <time>2014-06-22T06:01:10Z</time>
      </trkpt>
      <trkpt lat="46.46164" lon="4.83373">
        <ele>378.89685058594</ele>
        <time>2014-06-22T06:01:33Z</time>
      </trkpt>
      <trkpt lat="46.46154" lon="4.83435">
        <ele>388.029296875</ele>
        <time>2014-06-22T06:01:42Z</time>
      </trkpt>
      <trkpt lat="46.46087" lon="4.83596">
        <ele>388.51000976562</ele>
        <time>2014-06-22T06:02:12Z</time>
      </trkpt>
      <trkpt lat="46.46101" lon="4.83636">
        <ele>388.029296875</ele>
        <time>2014-06-22T06:02:19Z</time>
      </trkpt>
      <trkpt lat="46.46158" lon="4.83669">
        <ele>383.22265625</ele>
        <time>2014-06-22T06:02:35Z</time>
      </trkpt>
      <trkpt lat="46.46209" lon="4.83752">
        <ele>374.57080078125</ele>
        <time>2014-06-22T06:02:57Z</time>
      </trkpt>
      <trkpt lat="46.46118" lon="4.83858">
        <ele>369.76428222656</ele>
        <time>2014-06-22T06:03:29Z</time>
      </trkpt>
      <trkpt lat="46.46084" lon="4.83838">
        <ele>373.60949707031</ele>
        <time>2014-06-22T06:03:38Z</time>
      </trkpt>
      <trkpt lat="46.45947" lon="4.83696">
        <ele>382.26135253906</ele>
        <time>2014-06-22T06:04:22Z</time>
      </trkpt>
      <trkpt lat="46.45858" lon="4.83535">
        <ele>387.06799316406</ele>
        <time>2014-06-22T06:05:00Z</time>
      </trkpt>
      <trkpt lat="46.45792" lon="4.83469">
        <ele>388.029296875</ele>
        <time>2014-06-22T06:05:24Z</time>
      </trkpt>
      <trkpt lat="46.4558" lon="4.83326">
        <ele>388.99060058594</ele>
        <time>2014-06-22T06:06:32Z</time>
      </trkpt>
      <trkpt lat="46.45437" lon="4.83065">
        <ele>408.69763183594</ele>
        <time>2014-06-22T06:07:41Z</time>
      </trkpt>
      <trkpt lat="46.45441" lon="4.83055">
        <ele>411.10095214844</ele>
        <time>2014-06-22T06:07:44Z</time>
      </trkpt>
      <trkpt lat="46.45518" lon="4.83097">
        <ele>410.1396484375</ele>
        <time>2014-06-22T06:08:12Z</time>
      </trkpt>
      <trkpt lat="46.45507" lon="4.83159">
        <ele>403.89111328125</ele>
        <time>2014-06-22T06:08:28Z</time>
      </trkpt>
      <trkpt lat="46.45557" lon="4.83176">
        <ele>403.89111328125</ele>
        <time>2014-06-22T06:08:49Z</time>
      </trkpt>
      <trkpt lat="46.45628" lon="4.83234">
        <ele>401.96850585938</ele>
        <time>2014-06-22T06:09:25Z</time>
      </trkpt>
      <trkpt lat="46.45639" lon="4.83293">
        <ele>394.75854492188</ele>
        <time>2014-06-22T06:09:42Z</time>
      </trkpt>
      <trkpt lat="46.45671" lon="4.83332">
        <ele>395.23913574219</ele>
        <time>2014-06-22T06:09:58Z</time>
      </trkpt>
      <trkpt lat="46.45795" lon="4.83421">
        <ele>392.8359375</ele>
        <time>2014-06-22T06:10:44Z</time>
      </trkpt>
      <trkpt lat="46.45802" lon="4.83392">
        <ele>393.79724121094</ele>
        <time>2014-06-22T06:10:50Z</time>
      </trkpt>
      <trkpt lat="46.45789" lon="4.83357">
        <ele>396.20056152344</ele>
        <time>2014-06-22T06:10:59Z</time>
      </trkpt>
      <trkpt lat="46.45711" lon="4.83257">
        <ele>403.89111328125</ele>
        <time>2014-06-22T06:11:28Z</time>
      </trkpt>
      <trkpt lat="46.45701" lon="4.83193">
        <ele>409.17834472656</ele>
        <time>2014-06-22T06:11:41Z</time>
      </trkpt>
      <trkpt lat="46.45675" lon="4.83119">
        <ele>412.54284667969</ele>
        <time>2014-06-22T06:11:57Z</time>
      </trkpt>
      <trkpt lat="46.45653" lon="4.8297">
        <ele>401.96850585938</ele>
        <time>2014-06-22T06:12:28Z</time>
      </trkpt>
      <trkpt lat="46.45658" lon="4.82946">
        <ele>400.0458984375</ele>
        <time>2014-06-22T06:12:32Z</time>
      </trkpt>
      <trkpt lat="46.45621" lon="4.82782">
        <ele>397.16174316406</ele>
        <time>2014-06-22T06:13:09Z</time>
      </trkpt>
      <trkpt lat="46.4543" lon="4.82497">
        <ele>406.29431152344</ele>
        <time>2014-06-22T06:14:35Z</time>
      </trkpt>
      <trkpt lat="46.45423" lon="4.82488">
        <ele>406.77490234375</ele>
        <time>2014-06-22T06:14:38Z</time>
      </trkpt>
      <trkpt lat="46.45413" lon="4.82495">
        <ele>408.21704101562</ele>
        <time>2014-06-22T06:14:42Z</time>
      </trkpt>
      <trkpt lat="46.45471" lon="4.82282">
        <ele>390.4326171875</ele>
        <time>2014-06-22T06:15:37Z</time>
      </trkpt>
      <trkpt lat="46.45424" lon="4.82237">
        <ele>389.95190429688</ele>
        <time>2014-06-22T06:15:56Z</time>
      </trkpt>
      <trkpt lat="46.45391" lon="4.82228">
        <ele>388.99060058594</ele>
        <time>2014-06-22T06:16:07Z</time>
      </trkpt>
      <trkpt lat="46.45538" lon="4.8208">
        <ele>384.18408203125</ele>
        <time>2014-06-22T06:17:00Z</time>
      </trkpt>
      <trkpt lat="46.45577" lon="4.8208">
        <ele>383.22265625</ele>
        <time>2014-06-22T06:17:11Z</time>
      </trkpt>
      <trkpt lat="46.45636" lon="4.82139">
        <ele>378.41613769531</ele>
        <time>2014-06-22T06:17:29Z</time>
      </trkpt>
      <trkpt lat="46.45658" lon="4.82038">
        <ele>378.89685058594</ele>
        <time>2014-06-22T06:17:48Z</time>
      </trkpt>
      <trkpt lat="46.45674" lon="4.82015">
        <ele>380.81945800781</ele>
        <time>2014-06-22T06:17:54Z</time>
      </trkpt>
      <trkpt lat="46.45709" lon="4.82018">
        <ele>382.74206542969</ele>
        <time>2014-06-22T06:18:03Z</time>
      </trkpt>
      <trkpt lat="46.45798" lon="4.82068">
        <ele>391.87451171875</ele>
        <time>2014-06-22T06:18:30Z</time>
      </trkpt>
      <trkpt lat="46.45866" lon="4.82052">
        <ele>392.35534667969</ele>
        <time>2014-06-22T06:18:50Z</time>
      </trkpt>
      <trkpt lat="46.45953" lon="4.82057">
        <ele>392.35534667969</ele>
        <time>2014-06-22T06:19:16Z</time>
      </trkpt>
      <trkpt lat="46.45968" lon="4.81982">
        <ele>397.64245605469</ele>
        <time>2014-06-22T06:19:33Z</time>
      </trkpt>
      <trkpt lat="46.4595" lon="4.81944">
        <ele>399.56506347656</ele>
        <time>2014-06-22T06:19:43Z</time>
      </trkpt>
      <trkpt lat="46.45962" lon="4.81884">
        <ele>396.68115234375</ele>
        <time>2014-06-22T06:19:58Z</time>
      </trkpt>
      <trkpt lat="46.45919" lon="4.81804">
        <ele>400.0458984375</ele>
        <time>2014-06-22T06:20:25Z</time>
      </trkpt>
      <trkpt lat="46.45734" lon="4.81685">
        <ele>428.40466308594</ele>
        <time>2014-06-22T06:21:55Z</time>
      </trkpt>
      <trkpt lat="46.4567" lon="4.81669">
        <ele>426.00134277344</ele>
        <time>2014-06-22T06:22:25Z</time>
      </trkpt>
      <trkpt lat="46.45649" lon="4.81696">
        <ele>425.52075195312</ele>
        <time>2014-06-22T06:22:37Z</time>
      </trkpt>
      <trkpt lat="46.45628" lon="4.81691">
        <ele>423.59802246094</ele>
        <time>2014-06-22T06:22:47Z</time>
      </trkpt>
      <trkpt lat="46.45595" lon="4.81767">
        <ele>412.54284667969</ele>
        <time>2014-06-22T06:23:11Z</time>
      </trkpt>
      <trkpt lat="46.45564" lon="4.81746">
        <ele>411.58166503906</ele>
        <time>2014-06-22T06:23:22Z</time>
      </trkpt>
      <trkpt lat="46.4555" lon="4.81716">
        <ele>412.06225585938</ele>
        <time>2014-06-22T06:23:30Z</time>
      </trkpt>
      <trkpt lat="46.45503" lon="4.81717">
        <ele>408.69763183594</ele>
        <time>2014-06-22T06:23:42Z</time>
      </trkpt>
      <trkpt lat="46.45434" lon="4.81669">
        <ele>398.60375976562</ele>
        <time>2014-06-22T06:24:01Z</time>
      </trkpt>
      <trkpt lat="46.45388" lon="4.81667">
        <ele>389.95190429688</ele>
        <time>2014-06-22T06:24:11Z</time>
      </trkpt>
      <trkpt lat="46.45372" lon="4.81652">
        <ele>384.66479492188</ele>
        <time>2014-06-22T06:24:15Z</time>
      </trkpt>
      <trkpt lat="46.45272" lon="4.81736">
        <ele>369.76428222656</ele>
        <time>2014-06-22T06:24:35Z</time>
      </trkpt>
      <trkpt lat="46.4518" lon="4.81734">
        <ele>364.47692871094</ele>
        <time>2014-06-22T06:24:51Z</time>
      </trkpt>
      <trkpt lat="46.45109" lon="4.81767">
        <ele>354.86376953125</ele>
        <time>2014-06-22T06:25:03Z</time>
      </trkpt>
      <trkpt lat="46.45014" lon="4.81759">
        <ele>346.21203613281</ele>
        <time>2014-06-22T06:25:17Z</time>
      </trkpt>
      <trkpt lat="46.44974" lon="4.81778">
        <ele>338.521484375</ele>
        <time>2014-06-22T06:25:24Z</time>
      </trkpt>
      <trkpt lat="46.44884" lon="4.81792">
        <ele>342.36669921875</ele>
        <time>2014-06-22T06:25:37Z</time>
      </trkpt>
      <trkpt lat="46.44839" lon="4.81847">
        <ele>344.77001953125</ele>
        <time>2014-06-22T06:25:46Z</time>
      </trkpt>
      <trkpt lat="46.44826" lon="4.81897">
        <ele>348.615234375</ele>
        <time>2014-06-22T06:25:52Z</time>
      </trkpt>
      <trkpt lat="46.44792" lon="4.81894">
        <ele>349.57653808594</ele>
        <time>2014-06-22T06:25:57Z</time>
      </trkpt>
      <trkpt lat="46.44724" lon="4.8184">
        <ele>352.46057128906</ele>
        <time>2014-06-22T06:26:11Z</time>
      </trkpt>
      <trkpt lat="46.4473" lon="4.81715">
        <ele>347.65393066406</ele>
        <time>2014-06-22T06:26:28Z</time>
      </trkpt>
      <trkpt lat="46.44754" lon="4.81698">
        <ele>344.77001953125</ele>
        <time>2014-06-22T06:26:33Z</time>
      </trkpt>
      <trkpt lat="46.44766" lon="4.81705">
        <ele>343.32788085938</ele>
        <time>2014-06-22T06:26:36Z</time>
      </trkpt>
      <trkpt lat="46.448" lon="4.81665">
        <ele>332.27282714844</ele>
        <time>2014-06-22T06:26:46Z</time>
      </trkpt>
      <trkpt lat="46.4485" lon="4.81708">
        <ele>336.1181640625</ele>
        <time>2014-06-22T06:26:59Z</time>
      </trkpt>
      <trkpt lat="46.44869" lon="4.81701">
        <ele>338.521484375</ele>
        <time>2014-06-22T06:27:03Z</time>
      </trkpt>
      <trkpt lat="46.44876" lon="4.81687">
        <ele>339.96337890625</ele>
        <time>2014-06-22T06:27:06Z</time>
      </trkpt>
      <trkpt lat="46.44868" lon="4.81567">
        <ele>346.69262695312</ele>
        <time>2014-06-22T06:27:26Z</time>
      </trkpt>
      <trkpt lat="46.44904" lon="4.81527">
        <ele>351.49914550781</ele>
        <time>2014-06-22T06:27:38Z</time>
      </trkpt>
      <trkpt lat="46.44964" lon="4.81521">
        <ele>358.22839355469</ele>
        <time>2014-06-22T06:27:55Z</time>
      </trkpt>
      <trkpt lat="46.4502" lon="4.81563">
        <ele>362.07373046875</ele>
        <time>2014-06-22T06:28:13Z</time>
      </trkpt>
      <trkpt lat="46.45038" lon="4.81561">
        <ele>363.99633789062</ele>
        <time>2014-06-22T06:28:19Z</time>
      </trkpt>
      <trkpt lat="46.45054" lon="4.81534">
        <ele>362.55432128906</ele>
        <time>2014-06-22T06:28:27Z</time>
      </trkpt>
      <trkpt lat="46.45055" lon="4.81502">
        <ele>356.30578613281</ele>
        <time>2014-06-22T06:28:36Z</time>
      </trkpt>
      <trkpt lat="46.45075" lon="4.81481">
        <ele>350.05725097656</ele>
        <time>2014-06-22T06:28:46Z</time>
      </trkpt>
      <trkpt lat="46.45169" lon="4.81549">
        <ele>357.26708984375</ele>
        <time>2014-06-22T06:29:27Z</time>
      </trkpt>
      <trkpt lat="46.45205" lon="4.81474">
        <ele>351.49914550781</ele>
        <time>2014-06-22T06:29:49Z</time>
      </trkpt>
      <trkpt lat="46.45274" lon="4.81529">
        <ele>363.99633789062</ele>
        <time>2014-06-22T06:30:13Z</time>
      </trkpt>
      <trkpt lat="46.4533" lon="4.81556">
        <ele>371.20629882812</ele>
        <time>2014-06-22T06:30:30Z</time>
      </trkpt>
      <trkpt lat="46.45336" lon="4.8155">
        <ele>372.64819335938</ele>
        <time>2014-06-22T06:30:32Z</time>
      </trkpt>
      <trkpt lat="46.45318" lon="4.81516">
        <ele>373.60949707031</ele>
        <time>2014-06-22T06:30:40Z</time>
      </trkpt>
      <trkpt lat="46.45359" lon="4.81363">
        <ele>372.16748046875</ele>
        <time>2014-06-22T06:31:12Z</time>
      </trkpt>
      <trkpt lat="46.45361" lon="4.8104">
        <ele>352.46057128906</ele>
        <time>2014-06-22T06:32:13Z</time>
      </trkpt>
      <trkpt lat="46.45393" lon="4.80889">
        <ele>340.92468261719</ele>
        <time>2014-06-22T06:32:43Z</time>
      </trkpt>
      <trkpt lat="46.45394" lon="4.80712">
        <ele>328.90832519531</ele>
        <time>2014-06-22T06:33:18Z</time>
      </trkpt>
      <trkpt lat="46.45445" lon="4.80425">
        <ele>307.75927734375</ele>
        <time>2014-06-22T06:34:15Z</time>
      </trkpt>
      <trkpt lat="46.4546" lon="4.80202">
        <ele>302.47192382812</ele>
        <time>2014-06-22T06:35:00Z</time>
      </trkpt>
      <trkpt lat="46.45444" lon="4.80124">
        <ele>301.51062011719</ele>
        <time>2014-06-22T06:35:16Z</time>
      </trkpt>
      <trkpt lat="46.4537" lon="4.80097">
        <ele>294.30078125</ele>
        <time>2014-06-22T06:35:37Z</time>
      </trkpt>
      <trkpt lat="46.45344" lon="4.80104">
        <ele>294.30078125</ele>
        <time>2014-06-22T06:35:43Z</time>
      </trkpt>
      <trkpt lat="46.45322" lon="4.80091">
        <ele>293.82006835938</ele>
        <time>2014-06-22T06:35:48Z</time>
      </trkpt>
      <trkpt lat="46.45235" lon="4.80075">
        <ele>300.06872558594</ele>
        <time>2014-06-22T06:36:06Z</time>
      </trkpt>
      <trkpt lat="46.45206" lon="4.79962">
        <ele>289.01354980469</ele>
        <time>2014-06-22T06:36:22Z</time>
      </trkpt>
      <trkpt lat="46.45149" lon="4.79953">
        <ele>287.57141113281</ele>
        <time>2014-06-22T06:36:32Z</time>
      </trkpt>
      <trkpt lat="46.4513" lon="4.79921">
        <ele>286.12951660156</ele>
        <time>2014-06-22T06:36:38Z</time>
      </trkpt>
      <trkpt lat="46.45094" lon="4.79933">
        <ele>285.64880371094</ele>
        <time>2014-06-22T06:36:45Z</time>
      </trkpt>
      <trkpt lat="46.45094" lon="4.79964">
        <ele>285.16821289062</ele>
        <time>2014-06-22T06:36:49Z</time>
      </trkpt>
      <trkpt lat="46.45066" lon="4.79981">
        <ele>286.12951660156</ele>
        <time>2014-06-22T06:36:55Z</time>
      </trkpt>
      <trkpt lat="46.45062" lon="4.80007">
        <ele>286.12951660156</ele>
        <time>2014-06-22T06:37:00Z</time>
      </trkpt>
      <trkpt lat="46.45025" lon="4.80046">
        <ele>284.68762207031</ele>
        <time>2014-06-22T06:37:10Z</time>
      </trkpt>
      <trkpt lat="46.45005" lon="4.80016">
        <ele>284.20690917969</ele>
        <time>2014-06-22T06:37:17Z</time>
      </trkpt>
      <trkpt lat="46.45005" lon="4.79943">
        <ele>285.64880371094</ele>
        <time>2014-06-22T06:37:29Z</time>
      </trkpt>
      <trkpt lat="46.45063" lon="4.79896">
        <ele>288.53295898438</ele>
        <time>2014-06-22T06:37:45Z</time>
      </trkpt>
      <trkpt lat="46.45157" lon="4.79854">
        <ele>290.93615722656</ele>
        <time>2014-06-22T06:38:10Z</time>
      </trkpt>
      <trkpt lat="46.45194" lon="4.79764">
        <ele>297.18469238281</ele>
        <time>2014-06-22T06:38:31Z</time>
      </trkpt>
      <trkpt lat="46.45219" lon="4.79733">
        <ele>299.10729980469</ele>
        <time>2014-06-22T06:38:40Z</time>
      </trkpt>
      <trkpt lat="46.45276" lon="4.79555">
        <ele>300.54931640625</ele>
        <time>2014-06-22T06:39:25Z</time>
      </trkpt>
      <trkpt lat="46.45276" lon="4.79487">
        <ele>297.66540527344</ele>
        <time>2014-06-22T06:39:42Z</time>
      </trkpt>
      <trkpt lat="46.45244" lon="4.79433">
        <ele>294.78137207031</ele>
        <time>2014-06-22T06:39:59Z</time>
      </trkpt>
      <trkpt lat="46.45261" lon="4.79369">
        <ele>289.01354980469</ele>
        <time>2014-06-22T06:40:15Z</time>
      </trkpt>
      <trkpt lat="46.4522" lon="4.79343">
        <ele>284.20690917969</ele>
        <time>2014-06-22T06:40:29Z</time>
      </trkpt>
      <trkpt lat="46.45124" lon="4.79316">
        <ele>280.84240722656</ele>
        <time>2014-06-22T06:40:57Z</time>
      </trkpt>
      <trkpt lat="46.45017" lon="4.79326">
        <ele>279.40026855469</ele>
        <time>2014-06-22T06:41:26Z</time>
      </trkpt>
      <trkpt lat="46.4495" lon="4.79308">
        <ele>276.51635742188</ele>
        <time>2014-06-22T06:41:42Z</time>
      </trkpt>
      <trkpt lat="46.44919" lon="4.79278">
        <ele>274.59375</ele>
        <time>2014-06-22T06:41:51Z</time>
      </trkpt>
      <trkpt lat="46.44902" lon="4.79219">
        <ele>271.22912597656</ele>
        <time>2014-06-22T06:42:00Z</time>
      </trkpt>
      <trkpt lat="46.44628" lon="4.79189">
        <ele>266.90319824219</ele>
        <time>2014-06-22T06:42:55Z</time>
      </trkpt>
      <trkpt lat="46.44592" lon="4.79167">
        <ele>265.46130371094</ele>
        <time>2014-06-22T06:43:03Z</time>
      </trkpt>
      <trkpt lat="46.44568" lon="4.79101">
        <ele>265.46130371094</ele>
        <time>2014-06-22T06:43:12Z</time>
      </trkpt>
      <trkpt lat="46.44566" lon="4.78892">
        <ele>264.49987792969</ele>
        <time>2014-06-22T06:43:39Z</time>
      </trkpt>
      <trkpt lat="46.44568" lon="4.78873">
        <ele>264.49987792969</ele>
        <time>2014-06-22T06:43:41Z</time>
      </trkpt>
      <trkpt lat="46.44582" lon="4.7887">
        <ele>264.49987792969</ele>
        <time>2014-06-22T06:43:44Z</time>
      </trkpt>
      <trkpt lat="46.44609" lon="4.78935">
        <ele>267.38391113281</ele>
        <time>2014-06-22T06:43:55Z</time>
      </trkpt>
      <trkpt lat="46.44651" lon="4.78981">
        <ele>270.74841308594</ele>
        <time>2014-06-22T06:44:07Z</time>
      </trkpt>
      <trkpt lat="46.44689" lon="4.78995">
        <ele>274.11303710938</ele>
        <time>2014-06-22T06:44:17Z</time>
      </trkpt>
      <trkpt lat="46.44813" lon="4.78999">
        <ele>276.9970703125</ele>
        <time>2014-06-22T06:44:50Z</time>
      </trkpt>
      <trkpt lat="46.44844" lon="4.79016">
        <ele>275.07446289062</ele>
        <time>2014-06-22T06:45:00Z</time>
      </trkpt>
      <trkpt lat="46.44966" lon="4.79024">
        <ele>270.74841308594</ele>
        <time>2014-06-22T06:45:38Z</time>
      </trkpt>
      <trkpt lat="46.44982" lon="4.78898">
        <ele>272.1904296875</ele>
        <time>2014-06-22T06:46:08Z</time>
      </trkpt>
      <trkpt lat="46.45011" lon="4.78801">
        <ele>273.63244628906</ele>
        <time>2014-06-22T06:46:33Z</time>
      </trkpt>
      <trkpt lat="46.45068" lon="4.78697">
        <ele>274.11303710938</ele>
        <time>2014-06-22T06:47:05Z</time>
      </trkpt>
      <trkpt lat="46.45039" lon="4.78584">
        <ele>273.63244628906</ele>
        <time>2014-06-22T06:47:35Z</time>
      </trkpt>
      <trkpt lat="46.44982" lon="4.78531">
        <ele>276.9970703125</ele>
        <time>2014-06-22T06:48:01Z</time>
      </trkpt>
      <trkpt lat="46.4494" lon="4.78432">
        <ele>281.32299804688</ele>
        <time>2014-06-22T06:48:30Z</time>
      </trkpt>
      <trkpt lat="46.44909" lon="4.78402">
        <ele>284.68762207031</ele>
        <time>2014-06-22T06:48:43Z</time>
      </trkpt>
      <trkpt lat="46.44911" lon="4.78331">
        <ele>285.64880371094</ele>
        <time>2014-06-22T06:49:01Z</time>
      </trkpt>
      <trkpt lat="46.44917" lon="4.78316">
        <ele>286.12951660156</ele>
        <time>2014-06-22T06:49:06Z</time>
      </trkpt>
      <trkpt lat="46.44967" lon="4.78287">
        <ele>285.64880371094</ele>
        <time>2014-06-22T06:49:26Z</time>
      </trkpt>
      <trkpt lat="46.45074" lon="4.77968">
        <ele>286.61022949219</ele>
        <time>2014-06-22T06:51:02Z</time>
      </trkpt>
      <trkpt lat="46.45114" lon="4.77882">
        <ele>289.494140625</ele>
        <time>2014-06-22T06:51:30Z</time>
      </trkpt>
      <trkpt lat="46.45146" lon="4.77742">
        <ele>290.93615722656</ele>
        <time>2014-06-22T06:52:12Z</time>
      </trkpt>
      <trkpt lat="46.45204" lon="4.7722">
        <ele>288.53295898438</ele>
        <time>2014-06-22T06:54:40Z</time>
      </trkpt>
      <trkpt lat="46.45193" lon="4.77161">
        <ele>289.01354980469</ele>
        <time>2014-06-22T06:54:57Z</time>
      </trkpt>
      <trkpt lat="46.45192" lon="4.76917">
        <ele>294.30078125</ele>
        <time>2014-06-22T06:56:03Z</time>
      </trkpt>
      <trkpt lat="46.45215" lon="4.76857">
        <ele>296.7041015625</ele>
        <time>2014-06-22T06:56:22Z</time>
      </trkpt>
      <trkpt lat="46.45249" lon="4.76834">
        <ele>297.18469238281</ele>
        <time>2014-06-22T06:56:36Z</time>
      </trkpt>
      <trkpt lat="46.45316" lon="4.76536">
        <ele>315.44982910156</ele>
        <time>2014-06-22T06:57:57Z</time>
      </trkpt>
      <trkpt lat="46.45318" lon="4.76521">
        <ele>317.37243652344</ele>
        <time>2014-06-22T06:58:02Z</time>
      </trkpt>
      <trkpt lat="46.45295" lon="4.76497">
        <ele>320.25634765625</ele>
        <time>2014-06-22T06:58:14Z</time>
      </trkpt>
      <trkpt lat="46.45302" lon="4.76459">
        <ele>323.62097167969</ele>
        <time>2014-06-22T06:58:26Z</time>
      </trkpt>
      <trkpt lat="46.45372" lon="4.76409">
        <ele>332.75354003906</ele>
        <time>2014-06-22T06:59:07Z</time>
      </trkpt>
      <trkpt lat="46.45374" lon="4.76393">
        <ele>334.67614746094</ele>
        <time>2014-06-22T06:59:13Z</time>
      </trkpt>
      <trkpt lat="46.45298" lon="4.76334">
        <ele>345.25061035156</ele>
        <time>2014-06-22T07:00:15Z</time>
      </trkpt>
      <trkpt lat="46.45087" lon="4.76062">
        <ele>384.18408203125</ele>
        <time>2014-06-22T07:04:16Z</time>
      </trkpt>
      <trkpt lat="46.45028" lon="4.76008">
        <ele>387.54858398438</ele>
        <time>2014-06-22T07:05:30Z</time>
      </trkpt>
      <trkpt lat="46.45038" lon="4.75907">
        <ele>395.23913574219</ele>
        <time>2014-06-22T07:07:09Z</time>
      </trkpt>
      <trkpt lat="46.45137" lon="4.75974">
        <ele>392.8359375</ele>
        <time>2014-06-22T07:10:14Z</time>
      </trkpt>
      <trkpt lat="46.45201" lon="4.75997">
        <ele>388.99060058594</ele>
        <time>2014-06-22T07:11:52Z</time>
      </trkpt>
      <trkpt lat="46.45424" lon="4.76048">
        <ele>377.45483398438</ele>
        <time>2014-06-22T07:15:58Z</time>
      </trkpt>
      <trkpt lat="46.45838" lon="4.76169">
        <ele>386.58740234375</ele>
        <time>2014-06-22T07:22:13Z</time>
      </trkpt>
      <trkpt lat="46.45849" lon="4.76192">
        <ele>386.10668945312</ele>
        <time>2014-06-22T07:22:25Z</time>
      </trkpt>
      <trkpt lat="46.4592" lon="4.76226">
        <ele>385.14538574219</ele>
        <time>2014-06-22T07:23:03Z</time>
      </trkpt>
      <trkpt lat="46.45937" lon="4.76256">
        <ele>383.22265625</ele>
        <time>2014-06-22T07:23:14Z</time>
      </trkpt>
      <trkpt lat="46.4603" lon="4.7632">
        <ele>377.93542480469</ele>
        <time>2014-06-22T07:23:51Z</time>
      </trkpt>
      <trkpt lat="46.4608" lon="4.76289">
        <ele>380.33874511719</ele>
        <time>2014-06-22T07:24:08Z</time>
      </trkpt>
      <trkpt lat="46.46083" lon="4.76215">
        <ele>381.78063964844</ele>
        <time>2014-06-22T07:24:22Z</time>
      </trkpt>
      <trkpt lat="46.46048" lon="4.76101">
        <ele>377.93542480469</ele>
        <time>2014-06-22T07:24:45Z</time>
      </trkpt>
      <trkpt lat="46.46007" lon="4.76074">
        <ele>376.01281738281</ele>
        <time>2014-06-22T07:24:56Z</time>
      </trkpt>
      <trkpt lat="46.45957" lon="4.76057">
        <ele>377.93542480469</ele>
        <time>2014-06-22T07:25:08Z</time>
      </trkpt>
      <trkpt lat="46.45916" lon="4.7599">
        <ele>368.80297851562</ele>
        <time>2014-06-22T07:25:22Z</time>
      </trkpt>
      <trkpt lat="46.45846" lon="4.76016">
        <ele>377.45483398438</ele>
        <time>2014-06-22T07:25:39Z</time>
      </trkpt>
      <trkpt lat="46.45672" lon="4.7598">
        <ele>375.53210449219</ele>
        <time>2014-06-22T07:26:22Z</time>
      </trkpt>
      <trkpt lat="46.4557" lon="4.7594">
        <ele>372.16748046875</ele>
        <time>2014-06-22T07:26:48Z</time>
      </trkpt>
      <trkpt lat="46.45539" lon="4.75944">
        <ele>370.7255859375</ele>
        <time>2014-06-22T07:26:56Z</time>
      </trkpt>
      <trkpt lat="46.45434" lon="4.75884">
        <ele>373.12890625</ele>
        <time>2014-06-22T07:27:25Z</time>
      </trkpt>
      <trkpt lat="46.4534" lon="4.75849">
        <ele>376.01281738281</ele>
        <time>2014-06-22T07:27:51Z</time>
      </trkpt>
      <trkpt lat="46.45242" lon="4.75778">
        <ele>383.70324707031</ele>
        <time>2014-06-22T07:28:21Z</time>
      </trkpt>
      <trkpt lat="46.45216" lon="4.75739">
        <ele>385.6259765625</ele>
        <time>2014-06-22T07:28:31Z</time>
      </trkpt>
      <trkpt lat="46.45125" lon="4.75656">
        <ele>395.23913574219</ele>
        <time>2014-06-22T07:29:03Z</time>
      </trkpt>
      <trkpt lat="46.45048" lon="4.75625">
        <ele>396.20056152344</ele>
        <time>2014-06-22T07:29:29Z</time>
      </trkpt>
      <trkpt lat="46.4497" lon="4.75607">
        <ele>392.35534667969</ele>
        <time>2014-06-22T07:29:56Z</time>
      </trkpt>
      <trkpt lat="46.44941" lon="4.75618">
        <ele>393.79724121094</ele>
        <time>2014-06-22T07:30:07Z</time>
      </trkpt>
      <trkpt lat="46.44924" lon="4.75742">
        <ele>398.60375976562</ele>
        <time>2014-06-22T07:30:39Z</time>
      </trkpt>
      <trkpt lat="46.44906" lon="4.75802">
        <ele>397.16174316406</ele>
        <time>2014-06-22T07:30:56Z</time>
      </trkpt>
      <trkpt lat="46.44805" lon="4.75764">
        <ele>390.91320800781</ele>
        <time>2014-06-22T07:31:36Z</time>
      </trkpt>
      <trkpt lat="46.44759" lon="4.7578">
        <ele>391.87451171875</ele>
        <time>2014-06-22T07:31:55Z</time>
      </trkpt>
      <trkpt lat="46.44721" lon="4.75779">
        <ele>392.8359375</ele>
        <time>2014-06-22T07:32:09Z</time>
      </trkpt>
      <trkpt lat="46.44738" lon="4.75736">
        <ele>388.99060058594</ele>
        <time>2014-06-22T07:32:21Z</time>
      </trkpt>
      <trkpt lat="46.44744" lon="4.75676">
        <ele>378.89685058594</ele>
        <time>2014-06-22T07:32:34Z</time>
      </trkpt>
      <trkpt lat="46.44781" lon="4.75605">
        <ele>378.41613769531</ele>
        <time>2014-06-22T07:32:51Z</time>
      </trkpt>
      <trkpt lat="46.44833" lon="4.75606">
        <ele>386.10668945312</ele>
        <time>2014-06-22T07:33:04Z</time>
      </trkpt>
      <trkpt lat="46.44847" lon="4.75578">
        <ele>375.53210449219</ele>
        <time>2014-06-22T07:33:09Z</time>
      </trkpt>
      <trkpt lat="46.44913" lon="4.75538">
        <ele>371.20629882812</ele>
        <time>2014-06-22T07:33:24Z</time>
      </trkpt>
      <trkpt lat="46.4507" lon="4.75544">
        <ele>375.05151367188</ele>
        <time>2014-06-22T07:33:55Z</time>
      </trkpt>
      <trkpt lat="46.4513" lon="4.75568">
        <ele>373.60949707031</ele>
        <time>2014-06-22T07:34:06Z</time>
      </trkpt>
      <trkpt lat="46.45185" lon="4.75598">
        <ele>361.11242675781</ele>
        <time>2014-06-22T07:34:17Z</time>
      </trkpt>
      <trkpt lat="46.45218" lon="4.75639">
        <ele>359.67041015625</ele>
        <time>2014-06-22T07:34:24Z</time>
      </trkpt>
      <trkpt lat="46.45337" lon="4.75727">
        <ele>358.22839355469</ele>
        <time>2014-06-22T07:34:46Z</time>
      </trkpt>
      <trkpt lat="46.45292" lon="4.75564">
        <ele>331.79211425781</ele>
        <time>2014-06-22T07:35:05Z</time>
      </trkpt>
      <trkpt lat="46.45267" lon="4.75529">
        <ele>328.90832519531</ele>
        <time>2014-06-22T07:35:11Z</time>
      </trkpt>
      <trkpt lat="46.45233" lon="4.75516">
        <ele>333.23413085938</ele>
        <time>2014-06-22T07:35:17Z</time>
      </trkpt>
      <trkpt lat="46.45199" lon="4.75477">
        <ele>331.79211425781</ele>
        <time>2014-06-22T07:35:24Z</time>
      </trkpt>
      <trkpt lat="46.45124" lon="4.75461">
        <ele>331.79211425781</ele>
        <time>2014-06-22T07:35:37Z</time>
      </trkpt>
      <trkpt lat="46.45088" lon="4.75427">
        <ele>328.90832519531</ele>
        <time>2014-06-22T07:35:44Z</time>
      </trkpt>
      <trkpt lat="46.45041" lon="4.75413">
        <ele>320.25634765625</ele>
        <time>2014-06-22T07:35:53Z</time>
      </trkpt>
      <trkpt lat="46.45014" lon="4.75389">
        <ele>315.44982910156</ele>
        <time>2014-06-22T07:35:59Z</time>
      </trkpt>
      <trkpt lat="46.44765" lon="4.75349">
        <ele>312.08520507812</ele>
        <time>2014-06-22T07:36:44Z</time>
      </trkpt>
      <trkpt lat="46.44713" lon="4.7535">
        <ele>310.64306640625</ele>
        <time>2014-06-22T07:36:53Z</time>
      </trkpt>
      <trkpt lat="46.44575" lon="4.75385">
        <ele>310.64306640625</ele>
        <time>2014-06-22T07:37:18Z</time>
      </trkpt>
      <trkpt lat="46.44427" lon="4.75363">
        <ele>306.31726074219</ele>
        <time>2014-06-22T07:37:45Z</time>
      </trkpt>
      <trkpt lat="46.44255" lon="4.75427">
        <ele>297.66540527344</ele>
        <time>2014-06-22T07:38:18Z</time>
      </trkpt>
      <trkpt lat="46.44147" lon="4.75514">
        <ele>291.41674804688</ele>
        <time>2014-06-22T07:38:42Z</time>
      </trkpt>
      <trkpt lat="46.44011" lon="4.75653">
        <ele>282.28430175781</ele>
        <time>2014-06-22T07:39:13Z</time>
      </trkpt>
      <trkpt lat="46.43974" lon="4.75646">
        <ele>281.80358886719</ele>
        <time>2014-06-22T07:39:20Z</time>
      </trkpt>
      <trkpt lat="46.43924" lon="4.7561">
        <ele>282.76501464844</ele>
        <time>2014-06-22T07:39:30Z</time>
      </trkpt>
      <trkpt lat="46.4395" lon="4.75397">
        <ele>286.61022949219</ele>
        <time>2014-06-22T07:39:59Z</time>
      </trkpt>
      <trkpt lat="46.44026" lon="4.75273">
        <ele>287.0908203125</ele>
        <time>2014-06-22T07:40:22Z</time>
      </trkpt>
      <trkpt lat="46.44048" lon="4.75218">
        <ele>287.57141113281</ele>
        <time>2014-06-22T07:40:32Z</time>
      </trkpt>
      <trkpt lat="46.44074" lon="4.74865">
        <ele>303.91394042969</ele>
        <time>2014-06-22T07:41:30Z</time>
      </trkpt>
      <trkpt lat="46.44034" lon="4.74779">
        <ele>311.6044921875</ele>
        <time>2014-06-22T07:41:48Z</time>
      </trkpt>
      <trkpt lat="46.43992" lon="4.74617">
        <ele>322.65966796875</ele>
        <time>2014-06-22T07:42:21Z</time>
      </trkpt>
      <trkpt lat="46.43936" lon="4.74497">
        <ele>331.3115234375</ele>
        <time>2014-06-22T07:42:52Z</time>
      </trkpt>
      <trkpt lat="46.43939" lon="4.74465">
        <ele>334.67614746094</ele>
        <time>2014-06-22T07:43:00Z</time>
      </trkpt>
      <trkpt lat="46.43985" lon="4.74403">
        <ele>340.92468261719</ele>
        <time>2014-06-22T07:43:28Z</time>
      </trkpt>
      <trkpt lat="46.44017" lon="4.74255">
        <ele>353.90258789062</ele>
        <time>2014-06-22T07:44:25Z</time>
      </trkpt>
      <trkpt lat="46.44003" lon="4.74208">
        <ele>357.26708984375</ele>
        <time>2014-06-22T07:44:48Z</time>
      </trkpt>
      <trkpt lat="46.43947" lon="4.74141">
        <ele>362.55432128906</ele>
        <time>2014-06-22T07:45:45Z</time>
      </trkpt>
      <trkpt lat="46.43947" lon="4.74107">
        <ele>364.95764160156</ele>
        <time>2014-06-22T07:46:09Z</time>
      </trkpt>
      <trkpt lat="46.44041" lon="4.74083">
        <ele>373.12890625</ele>
        <time>2014-06-22T07:48:11Z</time>
      </trkpt>
      <trkpt lat="46.44063" lon="4.74066">
        <ele>376.01281738281</ele>
        <time>2014-06-22T07:48:50Z</time>
      </trkpt>
      <trkpt lat="46.4407" lon="4.7398">
        <ele>380.33874511719</ele>
        <time>2014-06-22T07:50:44Z</time>
      </trkpt>
      <trkpt lat="46.44136" lon="4.73904">
        <ele>388.029296875</ele>
        <time>2014-06-22T07:53:50Z</time>
      </trkpt>
      <trkpt lat="46.44144" lon="4.73852">
        <ele>391.39379882812</ele>
        <time>2014-06-22T07:55:08Z</time>
      </trkpt>
      <trkpt lat="46.44174" lon="4.73829">
        <ele>393.31652832031</ele>
        <time>2014-06-22T07:56:18Z</time>
      </trkpt>
      <trkpt lat="46.44253" lon="4.73809">
        <ele>398.60375976562</ele>
        <time>2014-06-22T07:58:41Z</time>
      </trkpt>
      <trkpt lat="46.44314" lon="4.73777">
        <ele>403.41040039062</ele>
        <time>2014-06-22T08:00:28Z</time>
      </trkpt>
      <trkpt lat="46.4439" lon="4.73699">
        <ele>411.58166503906</ele>
        <time>2014-06-22T08:02:46Z</time>
      </trkpt>
      <trkpt lat="46.44404" lon="4.7366">
        <ele>413.98486328125</ele>
        <time>2014-06-22T08:03:26Z</time>
      </trkpt>
      <trkpt lat="46.44399" lon="4.73523">
        <ele>423.11743164062</ele>
        <time>2014-06-22T08:05:25Z</time>
      </trkpt>
      <trkpt lat="46.44377" lon="4.73449">
        <ele>426.96276855469</ele>
        <time>2014-06-22T08:06:32Z</time>
      </trkpt>
      <trkpt lat="46.44391" lon="4.73416">
        <ele>431.28857421875</ele>
        <time>2014-06-22T08:07:04Z</time>
      </trkpt>
      <trkpt lat="46.44388" lon="4.73324">
        <ele>436.57592773438</ele>
        <time>2014-06-22T08:08:22Z</time>
      </trkpt>
      <trkpt lat="46.44363" lon="4.73258">
        <ele>442.34387207031</ele>
        <time>2014-06-22T08:09:26Z</time>
      </trkpt>
      <trkpt lat="46.4435" lon="4.73171">
        <ele>445.22766113281</ele>
        <time>2014-06-22T08:10:45Z</time>
      </trkpt>
      <trkpt lat="46.44252" lon="4.72952">
        <ele>457.72497558594</ele>
        <time>2014-06-22T08:14:56Z</time>
      </trkpt>
      <trkpt lat="46.44251" lon="4.72897">
        <ele>459.64758300781</ele>
        <time>2014-06-22T08:15:48Z</time>
      </trkpt>
      <trkpt lat="46.44281" lon="4.72909">
        <ele>461.08947753906</ele>
        <time>2014-06-22T08:16:30Z</time>
      </trkpt>
      <trkpt lat="46.44311" lon="4.72901">
        <ele>463.01208496094</ele>
        <time>2014-06-22T08:17:08Z</time>
      </trkpt>
      <trkpt lat="46.44369" lon="4.72837">
        <ele>468.29931640625</ele>
        <time>2014-06-22T08:18:31Z</time>
      </trkpt>
      <trkpt lat="46.4439" lon="4.72796">
        <ele>471.18334960938</ele>
        <time>2014-06-22T08:19:08Z</time>
      </trkpt>
      <trkpt lat="46.44395" lon="4.72705">
        <ele>477.43188476562</ele>
        <time>2014-06-22T08:20:11Z</time>
      </trkpt>
      <trkpt lat="46.4436" lon="4.72573">
        <ele>480.31591796875</ele>
        <time>2014-06-22T08:21:41Z</time>
      </trkpt>
      <trkpt lat="46.44349" lon="4.72593">
        <ele>474.54797363281</ele>
        <time>2014-06-22T08:21:54Z</time>
      </trkpt>
      <trkpt lat="46.44365" lon="4.72592">
        <ele>470.22192382812</ele>
        <time>2014-06-22T08:22:02Z</time>
      </trkpt>
      <trkpt lat="46.44336" lon="4.72296">
        <ele>477.91247558594</ele>
        <time>2014-06-22T08:23:24Z</time>
      </trkpt>
      <trkpt lat="46.44351" lon="4.72263">
        <ele>480.31591796875</ele>
        <time>2014-06-22T08:23:33Z</time>
      </trkpt>
      <trkpt lat="46.44414" lon="4.72228">
        <ele>487.04504394531</ele>
        <time>2014-06-22T08:23:53Z</time>
      </trkpt>
      <trkpt lat="46.44419" lon="4.72124">
        <ele>490.40979003906</ele>
        <time>2014-06-22T08:24:13Z</time>
      </trkpt>
      <trkpt lat="46.44314" lon="4.71937">
        <ele>502.90673828125</ele>
        <time>2014-06-22T08:24:59Z</time>
      </trkpt>
      <trkpt lat="46.44231" lon="4.71839">
        <ele>507.23278808594</ele>
        <time>2014-06-22T08:25:29Z</time>
      </trkpt>
      <trkpt lat="46.44217" lon="4.71797">
        <ele>509.15539550781</ele>
        <time>2014-06-22T08:25:38Z</time>
      </trkpt>
      <trkpt lat="46.4423" lon="4.7173">
        <ele>511.07800292969</ele>
        <time>2014-06-22T08:25:51Z</time>
      </trkpt>
      <trkpt lat="46.44193" lon="4.71819">
        <ele>517.32666015625</ele>
        <time>2014-06-22T08:26:11Z</time>
      </trkpt>
      <trkpt lat="46.44174" lon="4.7197">
        <ele>526.45910644531</ele>
        <time>2014-06-22T08:26:46Z</time>
      </trkpt>
      <trkpt lat="46.4417" lon="4.72077">
        <ele>523.5751953125</ele>
        <time>2014-06-22T08:27:15Z</time>
      </trkpt>
      <trkpt lat="46.44151" lon="4.72095">
        <ele>524.05578613281</ele>
        <time>2014-06-22T08:27:25Z</time>
      </trkpt>
      <trkpt lat="46.43989" lon="4.72045">
        <ele>542.80151367188</ele>
        <time>2014-06-22T08:28:59Z</time>
      </trkpt>
      <trkpt lat="46.4396" lon="4.72022">
        <ele>545.685546875</ele>
        <time>2014-06-22T08:29:20Z</time>
      </trkpt>
      <trkpt lat="46.43917" lon="4.71956">
        <ele>550.01147460938</ele>
        <time>2014-06-22T08:29:57Z</time>
      </trkpt>
      <trkpt lat="46.43752" lon="4.71681">
        <ele>548.5693359375</ele>
        <time>2014-06-22T08:32:25Z</time>
      </trkpt>
      <trkpt lat="46.43707" lon="4.71643">
        <ele>543.28210449219</ele>
        <time>2014-06-22T08:32:54Z</time>
      </trkpt>
      <trkpt lat="46.43688" lon="4.71644">
        <ele>539.91760253906</ele>
        <time>2014-06-22T08:33:03Z</time>
      </trkpt>
      <trkpt lat="46.43595" lon="4.71587">
        <ele>532.70776367188</ele>
        <time>2014-06-22T08:33:43Z</time>
      </trkpt>
      <trkpt lat="46.43499" lon="4.71491">
        <ele>528.3818359375</ele>
        <time>2014-06-22T08:34:23Z</time>
      </trkpt>
      <trkpt lat="46.43444" lon="4.71516">
        <ele>527.42041015625</ele>
        <time>2014-06-22T08:34:40Z</time>
      </trkpt>
      <trkpt lat="46.43378" lon="4.71591">
        <ele>523.09460449219</ele>
        <time>2014-06-22T08:35:02Z</time>
      </trkpt>
      <trkpt lat="46.43227" lon="4.7169">
        <ele>523.5751953125</ele>
        <time>2014-06-22T08:35:42Z</time>
      </trkpt>
      <trkpt lat="46.43076" lon="4.71665">
        <ele>528.3818359375</ele>
        <time>2014-06-22T08:36:17Z</time>
      </trkpt>
      <trkpt lat="46.43066" lon="4.71686">
        <ele>530.78515625</ele>
        <time>2014-06-22T08:36:21Z</time>
      </trkpt>
      <trkpt lat="46.43067" lon="4.71904">
        <ele>554.81787109375</ele>
        <time>2014-06-22T08:36:55Z</time>
      </trkpt>
      <trkpt lat="46.43072" lon="4.72088">
        <ele>550.4921875</ele>
        <time>2014-06-22T08:37:25Z</time>
      </trkpt>
      <trkpt lat="46.43001" lon="4.72199">
        <ele>530.30444335938</ele>
        <time>2014-06-22T08:37:50Z</time>
      </trkpt>
      <trkpt lat="46.43001" lon="4.72249">
        <ele>520.21057128906</ele>
        <time>2014-06-22T08:37:58Z</time>
      </trkpt>
      <trkpt lat="46.42954" lon="4.72308">
        <ele>513.00073242188</ele>
        <time>2014-06-22T08:38:13Z</time>
      </trkpt>
      <trkpt lat="46.4291" lon="4.72407">
        <ele>481.7578125</ele>
        <time>2014-06-22T08:38:32Z</time>
      </trkpt>
      <trkpt lat="46.42906" lon="4.72444">
        <ele>478.39318847656</ele>
        <time>2014-06-22T08:38:38Z</time>
      </trkpt>
      <trkpt lat="46.42809" lon="4.72511">
        <ele>460.12817382812</ele>
        <time>2014-06-22T08:39:02Z</time>
      </trkpt>
      <trkpt lat="46.42785" lon="4.72548">
        <ele>454.8408203125</ele>
        <time>2014-06-22T08:39:09Z</time>
      </trkpt>
      <trkpt lat="46.42784" lon="4.72588">
        <ele>454.8408203125</ele>
        <time>2014-06-22T08:39:14Z</time>
      </trkpt>
      <trkpt lat="46.4276" lon="4.72621">
        <ele>445.70837402344</ele>
        <time>2014-06-22T08:39:20Z</time>
      </trkpt>
      <trkpt lat="46.4276" lon="4.72657">
        <ele>444.26647949219</ele>
        <time>2014-06-22T08:39:23Z</time>
      </trkpt>
      <trkpt lat="46.42794" lon="4.72762">
        <ele>433.21130371094</ele>
        <time>2014-06-22T08:39:35Z</time>
      </trkpt>
      <trkpt lat="46.42798" lon="4.72818">
        <ele>423.11743164062</ele>
        <time>2014-06-22T08:39:41Z</time>
      </trkpt>
      <trkpt lat="46.42819" lon="4.72863">
        <ele>415.42687988281</ele>
        <time>2014-06-22T08:39:46Z</time>
      </trkpt>
      <trkpt lat="46.42897" lon="4.7288">
        <ele>418.31079101562</ele>
        <time>2014-06-22T08:39:57Z</time>
      </trkpt>
      <trkpt lat="46.43057" lon="4.73131">
        <ele>419.75280761719</ele>
        <time>2014-06-22T08:40:30Z</time>
      </trkpt>
      <trkpt lat="46.43077" lon="4.73155">
        <ele>419.75280761719</ele>
        <time>2014-06-22T08:40:34Z</time>
      </trkpt>
      <trkpt lat="46.43112" lon="4.73165">
        <ele>421.67541503906</ele>
        <time>2014-06-22T08:40:40Z</time>
      </trkpt>
      <trkpt lat="46.43103" lon="4.73169">
        <ele>420.71411132812</ele>
        <time>2014-06-22T08:40:41Z</time>
      </trkpt>
      <trkpt lat="46.4311" lon="4.73174">
        <ele>420.2333984375</ele>
        <time>2014-06-22T08:40:42Z</time>
      </trkpt>
      <trkpt lat="46.43085" lon="4.73192">
        <ele>413.50427246094</ele>
        <time>2014-06-22T08:40:47Z</time>
      </trkpt>
      <trkpt lat="46.43066" lon="4.73267">
        <ele>389.47119140625</ele>
        <time>2014-06-22T08:40:57Z</time>
      </trkpt>
      <trkpt lat="46.43048" lon="4.73296">
        <ele>380.81945800781</ele>
        <time>2014-06-22T08:41:01Z</time>
      </trkpt>
      <trkpt lat="46.43036" lon="4.73297">
        <ele>373.12890625</ele>
        <time>2014-06-22T08:41:03Z</time>
      </trkpt>
      <trkpt lat="46.43041" lon="4.73381">
        <ele>365.9189453125</ele>
        <time>2014-06-22T08:41:13Z</time>
      </trkpt>
      <trkpt lat="46.43021" lon="4.7336">
        <ele>368.322265625</ele>
        <time>2014-06-22T08:41:17Z</time>
      </trkpt>
      <trkpt lat="46.42955" lon="4.73382">
        <ele>370.7255859375</ele>
        <time>2014-06-22T08:41:28Z</time>
      </trkpt>
      <trkpt lat="46.42914" lon="4.73376">
        <ele>374.09008789062</ele>
        <time>2014-06-22T08:41:35Z</time>
      </trkpt>
      <trkpt lat="46.42816" lon="4.73331">
        <ele>383.22265625</ele>
        <time>2014-06-22T08:41:51Z</time>
      </trkpt>
      <trkpt lat="46.42784" lon="4.73333">
        <ele>385.14538574219</ele>
        <time>2014-06-22T08:41:57Z</time>
      </trkpt>
      <trkpt lat="46.42756" lon="4.73383">
        <ele>388.029296875</ele>
        <time>2014-06-22T08:42:05Z</time>
      </trkpt>
      <trkpt lat="46.42773" lon="4.73491">
        <ele>392.8359375</ele>
        <time>2014-06-22T08:42:20Z</time>
      </trkpt>
      <trkpt lat="46.42698" lon="4.7374">
        <ele>414.94616699219</ele>
        <time>2014-06-22T08:43:05Z</time>
      </trkpt>
      <trkpt lat="46.4268" lon="4.73932">
        <ele>411.58166503906</ele>
        <time>2014-06-22T08:43:41Z</time>
      </trkpt>
      <trkpt lat="46.42626" lon="4.74006">
        <ele>405.81372070312</ele>
        <time>2014-06-22T08:44:04Z</time>
      </trkpt>
      <trkpt lat="46.4259" lon="4.74156">
        <ele>388.029296875</ele>
        <time>2014-06-22T08:44:42Z</time>
      </trkpt>
      <trkpt lat="46.42547" lon="4.74288">
        <ele>364.95764160156</ele>
        <time>2014-06-22T08:45:18Z</time>
      </trkpt>
      <trkpt lat="46.42474" lon="4.74358">
        <ele>347.17321777344</ele>
        <time>2014-06-22T08:45:49Z</time>
      </trkpt>
      <trkpt lat="46.42465" lon="4.74413">
        <ele>341.88598632812</ele>
        <time>2014-06-22T08:46:01Z</time>
      </trkpt>
      <trkpt lat="46.42481" lon="4.7449">
        <ele>331.79211425781</ele>
        <time>2014-06-22T08:46:15Z</time>
      </trkpt>
      <trkpt lat="46.42458" lon="4.74535">
        <ele>329.86950683594</ele>
        <time>2014-06-22T08:46:24Z</time>
      </trkpt>
      <trkpt lat="46.42466" lon="4.74635">
        <ele>330.35021972656</ele>
        <time>2014-06-22T08:46:38Z</time>
      </trkpt>
      <trkpt lat="46.42358" lon="4.74893">
        <ele>306.31726074219</ele>
        <time>2014-06-22T08:47:15Z</time>
      </trkpt>
      <trkpt lat="46.42384" lon="4.74939">
        <ele>300.54931640625</ele>
        <time>2014-06-22T08:47:21Z</time>
      </trkpt>
      <trkpt lat="46.42385" lon="4.74982">
        <ele>293.33935546875</ele>
        <time>2014-06-22T08:47:26Z</time>
      </trkpt>
      <trkpt lat="46.42347" lon="4.75054">
        <ele>285.16821289062</ele>
        <time>2014-06-22T08:47:35Z</time>
      </trkpt>
      <trkpt lat="46.42317" lon="4.75175">
        <ele>271.70971679688</ele>
        <time>2014-06-22T08:47:48Z</time>
      </trkpt>
      <trkpt lat="46.42318" lon="4.75219">
        <ele>268.82580566406</ele>
        <time>2014-06-22T08:47:52Z</time>
      </trkpt>
      <trkpt lat="46.42291" lon="4.75286">
        <ele>268.34509277344</ele>
        <time>2014-06-22T08:48:00Z</time>
      </trkpt>
      <trkpt lat="46.42259" lon="4.753">
        <ele>265.46130371094</ele>
        <time>2014-06-22T08:48:05Z</time>
      </trkpt>
      <trkpt lat="46.42012" lon="4.75339">
        <ele>259.21264648438</ele>
        <time>2014-06-22T08:48:42Z</time>
      </trkpt>
      <trkpt lat="46.41938" lon="4.75444">
        <ele>258.73193359375</ele>
        <time>2014-06-22T08:48:58Z</time>
      </trkpt>
      <trkpt lat="46.41883" lon="4.75555">
        <ele>257.77075195312</ele>
        <time>2014-06-22T08:49:13Z</time>
      </trkpt>
      <trkpt lat="46.41798" lon="4.75769">
        <ele>259.693359375</ele>
        <time>2014-06-22T08:49:41Z</time>
      </trkpt>
      <trkpt lat="46.41852" lon="4.75874">
        <ele>256.80932617188</ele>
        <time>2014-06-22T08:49:56Z</time>
      </trkpt>
      <trkpt lat="46.41949" lon="4.75951">
        <ele>253.92541503906</ele>
        <time>2014-06-22T08:50:16Z</time>
      </trkpt>
      <trkpt lat="46.42125" lon="4.75993">
        <ele>250.56079101562</ele>
        <time>2014-06-22T08:50:50Z</time>
      </trkpt>
      <trkpt lat="46.42132" lon="4.7601">
        <ele>250.08020019531</ele>
        <time>2014-06-22T08:50:53Z</time>
      </trkpt>
      <trkpt lat="46.42119" lon="4.76138">
        <ele>250.08020019531</ele>
        <time>2014-06-22T08:51:12Z</time>
      </trkpt>
      <trkpt lat="46.42088" lon="4.76222">
        <ele>250.08020019531</ele>
        <time>2014-06-22T08:51:27Z</time>
      </trkpt>
      <trkpt lat="46.42068" lon="4.76338">
        <ele>250.08020019531</ele>
        <time>2014-06-22T08:51:46Z</time>
      </trkpt>
      <trkpt lat="46.42071" lon="4.76387">
        <ele>249.59948730469</ele>
        <time>2014-06-22T08:51:54Z</time>
      </trkpt>
      <trkpt lat="46.42121" lon="4.76477">
        <ele>247.19604492188</ele>
        <time>2014-06-22T08:52:15Z</time>
      </trkpt>
      <trkpt lat="46.42124" lon="4.76539">
        <ele>247.19604492188</ele>
        <time>2014-06-22T08:52:26Z</time>
      </trkpt>
      <trkpt lat="46.42053" lon="4.76722">
        <ele>246.23486328125</ele>
        <time>2014-06-22T08:53:04Z</time>
      </trkpt>
      <trkpt lat="46.42062" lon="4.76758">
        <ele>246.23486328125</ele>
        <time>2014-06-22T08:53:11Z</time>
      </trkpt>
      <trkpt lat="46.42175" lon="4.7681">
        <ele>252.96398925781</ele>
        <time>2014-06-22T08:53:42Z</time>
      </trkpt>
      <trkpt lat="46.42205" lon="4.76806">
        <ele>253.92541503906</ele>
        <time>2014-06-22T08:53:51Z</time>
      </trkpt>
      <trkpt lat="46.42259" lon="4.76826">
        <ele>257.2900390625</ele>
        <time>2014-06-22T08:54:07Z</time>
      </trkpt>
      <trkpt lat="46.42558" lon="4.76682">
        <ele>267.86450195312</ele>
        <time>2014-06-22T08:55:45Z</time>
      </trkpt>
      <trkpt lat="46.426" lon="4.76652">
        <ele>268.34509277344</ele>
        <time>2014-06-22T08:56:00Z</time>
      </trkpt>
      <trkpt lat="46.42628" lon="4.76805">
        <ele>276.51635742188</ele>
        <time>2014-06-22T08:56:37Z</time>
      </trkpt>
      <trkpt lat="46.42619" lon="4.76912">
        <ele>281.32299804688</ele>
        <time>2014-06-22T08:57:04Z</time>
      </trkpt>
      <trkpt lat="46.42553" lon="4.77059">
        <ele>283.72619628906</ele>
        <time>2014-06-22T08:57:50Z</time>
      </trkpt>
      <trkpt lat="46.42502" lon="4.7722">
        <ele>292.85876464844</ele>
        <time>2014-06-22T08:58:40Z</time>
      </trkpt>
      <trkpt lat="46.42518" lon="4.77234">
        <ele>295.74267578125</ele>
        <time>2014-06-22T08:58:49Z</time>
      </trkpt>
      <trkpt lat="46.42586" lon="4.77229">
        <ele>302.47192382812</ele>
        <time>2014-06-22T08:59:24Z</time>
      </trkpt>
      <trkpt lat="46.43013" lon="4.77096">
        <ele>317.37243652344</ele>
        <time>2014-06-22T09:03:31Z</time>
      </trkpt>
      <trkpt lat="46.43042" lon="4.77348">
        <ele>341.88598632812</ele>
        <time>2014-06-22T09:05:24Z</time>
      </trkpt>
      <trkpt lat="46.43069" lon="4.77322">
        <ele>342.36669921875</ele>
        <time>2014-06-22T09:05:47Z</time>
      </trkpt>
      <trkpt lat="46.43141" lon="4.77327">
        <ele>347.17321777344</ele>
        <time>2014-06-22T09:06:42Z</time>
      </trkpt>
      <trkpt lat="46.43155" lon="4.77296">
        <ele>347.17321777344</ele>
        <time>2014-06-22T09:07:02Z</time>
      </trkpt>
      <trkpt lat="46.43198" lon="4.77272">
        <ele>348.13464355469</ele>
        <time>2014-06-22T09:07:38Z</time>
      </trkpt>
      <trkpt lat="46.43263" lon="4.77276">
        <ele>352.46057128906</ele>
        <time>2014-06-22T09:08:29Z</time>
      </trkpt>
      <trkpt lat="46.43353" lon="4.77362">
        <ele>361.59313964844</ele>
        <time>2014-06-22T09:09:51Z</time>
      </trkpt>
      <trkpt lat="46.4338" lon="4.77412">
        <ele>363.99633789062</ele>
        <time>2014-06-22T09:10:22Z</time>
      </trkpt>
      <trkpt lat="46.43464" lon="4.7747">
        <ele>365.9189453125</ele>
        <time>2014-06-22T09:11:24Z</time>
      </trkpt>
      <trkpt lat="46.43462" lon="4.77549">
        <ele>363.03503417969</ele>
        <time>2014-06-22T09:11:58Z</time>
      </trkpt>
      <trkpt lat="46.43491" lon="4.77584">
        <ele>362.55432128906</ele>
        <time>2014-06-22T09:12:18Z</time>
      </trkpt>
      <trkpt lat="46.4355" lon="4.77638">
        <ele>361.11242675781</ele>
        <time>2014-06-22T09:12:51Z</time>
      </trkpt>
      <trkpt lat="46.43646" lon="4.77692">
        <ele>356.30578613281</ele>
        <time>2014-06-22T09:13:34Z</time>
      </trkpt>
      <trkpt lat="46.43661" lon="4.77842">
        <ele>348.615234375</ele>
        <time>2014-06-22T09:14:13Z</time>
      </trkpt>
      <trkpt lat="46.43634" lon="4.7797">
        <ele>339.48266601562</ele>
        <time>2014-06-22T09:14:42Z</time>
      </trkpt>
      <trkpt lat="46.43641" lon="4.7811">
        <ele>330.35021972656</ele>
        <time>2014-06-22T09:15:10Z</time>
      </trkpt>
      <trkpt lat="46.43666" lon="4.78113">
        <ele>326.98559570312</ele>
        <time>2014-06-22T09:15:17Z</time>
      </trkpt>
      <trkpt lat="46.43682" lon="4.78134">
        <ele>320.25634765625</ele>
        <time>2014-06-22T09:15:22Z</time>
      </trkpt>
      <trkpt lat="46.43685" lon="4.78161">
        <ele>315.93041992188</ele>
        <time>2014-06-22T09:15:25Z</time>
      </trkpt>
      <trkpt lat="46.43711" lon="4.78179">
        <ele>312.08520507812</ele>
        <time>2014-06-22T09:15:31Z</time>
      </trkpt>
      <trkpt lat="46.43737" lon="4.78224">
        <ele>302.95251464844</ele>
        <time>2014-06-22T09:15:38Z</time>
      </trkpt>
      <trkpt lat="46.4376" lon="4.78222">
        <ele>296.7041015625</ele>
        <time>2014-06-22T09:15:41Z</time>
      </trkpt>
      <trkpt lat="46.43781" lon="4.78242">
        <ele>291.8974609375</ele>
        <time>2014-06-22T09:15:45Z</time>
      </trkpt>
      <trkpt lat="46.43788" lon="4.78293">
        <ele>289.01354980469</ele>
        <time>2014-06-22T09:15:50Z</time>
      </trkpt>
      <trkpt lat="46.43818" lon="4.7835">
        <ele>287.0908203125</ele>
        <time>2014-06-22T09:15:57Z</time>
      </trkpt>
      <trkpt lat="46.43801" lon="4.78739">
        <ele>278.91967773438</ele>
        <time>2014-06-22T09:16:35Z</time>
      </trkpt>
      <trkpt lat="46.43781" lon="4.78867">
        <ele>274.11303710938</ele>
        <time>2014-06-22T09:16:48Z</time>
      </trkpt>
      <trkpt lat="46.43638" lon="4.78846">
        <ele>273.15185546875</ele>
        <time>2014-06-22T09:17:09Z</time>
      </trkpt>
      <trkpt lat="46.43596" lon="4.78861">
        <ele>269.787109375</ele>
        <time>2014-06-22T09:17:16Z</time>
      </trkpt>
      <trkpt lat="46.43407" lon="4.78688">
        <ele>269.30651855469</ele>
        <time>2014-06-22T09:17:51Z</time>
      </trkpt>
      <trkpt lat="46.4335" lon="4.78673">
        <ele>272.1904296875</ele>
        <time>2014-06-22T09:18:00Z</time>
      </trkpt>
      <trkpt lat="46.43293" lon="4.78709">
        <ele>271.22912597656</ele>
        <time>2014-06-22T09:18:11Z</time>
      </trkpt>
      <trkpt lat="46.43267" lon="4.78772">
        <ele>269.30651855469</ele>
        <time>2014-06-22T09:18:20Z</time>
      </trkpt>
      <trkpt lat="46.43235" lon="4.78762">
        <ele>267.86450195312</ele>
        <time>2014-06-22T09:18:26Z</time>
      </trkpt>
      <trkpt lat="46.43222" lon="4.78769">
        <ele>265.94189453125</ele>
        <time>2014-06-22T09:18:29Z</time>
      </trkpt>
    </trkseg>
  </trk>
</gpx>